createdAt,value
2019-01-21T00:01:29.646Z,63.03
2019-01-21T00:03:58.656Z,62.00
2019-01-21T00:06:27.672Z,69.70
2019-01-21T00:08:56.660Z,60.97
2019-01-21T00:11:25.587Z,62.03
2019-01-21T00:13:54.552Z,68.93
2019-01-21T00:16:23.638Z,69.80
2019-01-21T00:18:52.642Z,69.30
2019-01-21T00:21:21.670Z,71.40
2019-01-21T00:23:50.656Z,64.63
2019-01-21T00:26:19.554Z,70.37
2019-01-21T00:28:48.514Z,65.67
2019-01-21T00:31:17.501Z,68.83
2019-01-21T00:33:46.431Z,67.47
2019-01-21T00:36:15.305Z,66.77
2019-01-21T00:38:44.195Z,65.43
2019-01-21T00:41:13.230Z,65.43
2019-01-21T00:43:42.203Z,64.30
2019-01-21T00:46:12.097Z,67.30
2019-01-21T00:48:40.985Z,68.17
2019-01-21T00:51:09.938Z,61.63
2019-01-21T00:53:38.886Z,69.73
2019-01-21T00:56:07.817Z,62.03
2019-01-21T00:58:36.797Z,65.60
2019-01-21T01:01:05.871Z,61.30
2019-01-21T01:03:34.870Z,63.90
2019-01-21T01:06:03.873Z,61.30
2019-01-21T01:08:32.994Z,64.40
2019-01-21T01:11:02.063Z,65.80
2019-01-21T01:13:31.110Z,57.53
2019-01-21T01:16:00.021Z,64.40
2019-01-21T01:18:28.950Z,63.70
2019-01-21T01:20:57.862Z,60.57
2019-01-21T01:23:26.803Z,60.43
2019-01-21T01:25:55.165Z,65.97
2019-01-21T01:28:23.545Z,62.97
2019-01-21T01:30:51.939Z,63.70
2019-01-21T01:33:20.323Z,63.40
2019-01-21T01:35:48.665Z,62.67
2019-01-21T01:38:17.061Z,66.80
2019-01-21T01:40:45.513Z,60.40
2019-01-21T01:43:14.575Z,57.87
2019-01-21T01:45:43.710Z,58.60
2019-01-21T01:48:12.626Z,58.83
2019-01-21T01:50:41.589Z,60.27
2019-01-21T01:53:10.578Z,57.03
2019-01-21T01:55:39.573Z,57.37
2019-01-21T01:58:08.584Z,55.07
2019-01-21T02:00:37.788Z,60.03
2019-01-21T02:03:07.175Z,55.63
2019-01-21T02:05:36.155Z,60.90
2019-01-21T02:08:05.274Z,58.13
2019-01-21T02:10:34.230Z,55.97
2019-01-21T02:13:03.214Z,58.67
2019-01-21T02:15:32.194Z,61.03
2019-01-21T02:18:01.086Z,57.83
2019-01-21T02:20:29.934Z,56.23
2019-01-21T02:23:11.763Z,57.20
2019-01-21T02:25:54.427Z,60.20
2019-01-21T02:28:52.715Z,55.90
2019-01-21T02:31:57.903Z,63.33
2019-01-21T02:34:52.674Z,60.17
2019-01-21T02:38:00.710Z,61.47
2019-01-21T02:40:57.387Z,66.37
2019-01-21T02:44:05.966Z,60.43
2019-01-21T02:47:18.326Z,60.10
2019-01-21T02:50:28.195Z,55.57
2019-01-21T02:53:36.558Z,60.00
2019-01-21T02:56:32.359Z,62.63
2019-01-21T02:59:34.298Z,62.13
2019-01-21T03:02:40.457Z,60.93
2019-01-21T03:05:46.168Z,63.90
2019-01-21T03:08:42.146Z,64.93
2019-01-21T03:11:49.322Z,63.00
2019-01-21T03:14:40.738Z,58.77
2019-01-21T03:17:51.895Z,64.20
2019-01-21T03:20:38.130Z,57.10
2019-01-21T03:23:46.770Z,54.00
2019-01-21T03:26:51.786Z,53.87
2019-01-21T03:30:07.843Z,58.27
2019-01-21T03:33:19.789Z,56.73
2019-01-21T03:36:15.409Z,54.40
2019-01-21T03:39:28.450Z,54.97
2019-01-21T03:42:18.975Z,55.10
2019-01-21T03:45:27.983Z,61.20
2019-01-21T03:48:17.795Z,56.07
2019-01-21T03:51:03.420Z,54.80
2019-01-21T03:53:53.430Z,58.37
2019-01-21T03:56:32.673Z,57.27
2019-01-21T03:59:38.638Z,56.97
2019-01-21T04:02:33.140Z,63.63
2019-01-21T04:05:24.491Z,57.20
2019-01-21T04:08:20.851Z,56.73
2019-01-21T04:11:32.850Z,55.30
2019-01-21T04:14:53.862Z,59.43
2019-01-21T04:18:04.394Z,56.20
2019-01-21T04:21:02.688Z,52.83
2019-01-21T04:24:17.808Z,61.53
2019-01-21T04:27:16.370Z,54.97
2019-01-21T04:30:32.577Z,52.83
2019-01-21T04:33:22.333Z,56.30
2019-01-21T04:36:39.972Z,54.00
2019-01-21T04:39:31.942Z,59.27
2019-01-21T04:42:40.434Z,56.70
2019-01-21T04:45:22.399Z,58.13
2019-01-21T04:48:43.120Z,54.53
2019-01-21T04:51:49.195Z,56.00
2019-01-21T04:54:44.798Z,51.47
2019-01-21T04:57:37.430Z,53.70
2019-01-21T05:00:41.515Z,51.60
2019-01-21T05:03:44.325Z,50.47
2019-01-21T05:06:28.275Z,58.60
2019-01-21T05:09:17.834Z,53.40
2019-01-21T05:12:23.151Z,51.83
2019-01-21T05:15:12.251Z,59.37
2019-01-21T05:18:14.899Z,57.50
2019-01-21T05:21:19.147Z,55.30
2019-01-21T05:24:26.141Z,54.80
2019-01-21T05:27:32.850Z,49.63
2019-01-21T05:30:37.802Z,49.90
2019-01-21T05:33:28.383Z,57.70
2019-01-21T05:36:38.282Z,52.90
2019-01-21T05:39:46.126Z,51.30
2019-01-21T05:42:59.998Z,55.57
2019-01-21T05:46:17.919Z,57.10
2019-01-21T05:49:28.351Z,50.67
2019-01-21T05:52:18.755Z,53.03
2019-01-21T05:55:15.165Z,44.33
2019-01-21T05:58:13.196Z,47.30
2019-01-21T06:01:25.563Z,43.43
2019-01-21T06:04:15.526Z,51.40
2019-01-21T06:07:15.155Z,50.70
2019-01-21T06:10:09.261Z,47.83
2019-01-21T06:12:55.618Z,48.57
2019-01-21T06:15:47.245Z,48.90
2019-01-21T06:18:27.228Z,45.33
2019-01-21T06:21:34.712Z,47.47
2019-01-21T06:24:33.107Z,47.97
2019-01-21T06:27:29.318Z,45.97
2019-01-21T06:39:05.269Z,46.13
2019-01-21T06:42:10.859Z,49.17
2019-01-21T07:23:27.575Z,41.10
2019-01-21T07:31:30.642Z,45.63
2019-01-21T07:38:11.337Z,43.83
2019-01-21T09:32:29.884Z,37.30
2019-01-21T09:42:08.610Z,34.03
2019-01-21T09:48:46.827Z,34.17
2019-01-21T09:51:17.556Z,35.23
2019-01-21T09:53:54.066Z,33.10
2019-01-21T09:56:26.977Z,34.87
2019-01-21T09:59:04.634Z,34.10
2019-01-21T10:01:35.663Z,35.00
2019-01-21T10:04:05.675Z,32.40
2019-01-21T10:06:51.235Z,30.70
2019-01-21T10:09:47.148Z,31.90
2019-01-21T10:13:06.396Z,32.73
2019-01-21T10:15:45.628Z,33.07
2019-01-21T10:18:39.667Z,32.63
2019-01-21T10:21:52.092Z,28.70
2019-01-21T10:24:55.250Z,31.97
2019-01-21T10:27:51.076Z,31.00
2019-01-21T10:30:52.927Z,28.60
2019-01-21T10:33:46.396Z,31.40
2019-01-21T10:37:07.742Z,30.93
2019-01-21T10:40:12.568Z,30.90
2019-01-21T10:43:22.662Z,32.27
2019-01-21T10:46:10.374Z,29.97
2019-01-21T10:49:16.323Z,32.97
2019-01-21T10:52:07.923Z,34.63
2019-01-21T10:55:03.339Z,32.97
2019-01-21T10:57:47.466Z,34.17
2019-01-21T11:00:56.042Z,33.20
2019-01-21T11:03:54.611Z,32.07
2019-01-21T11:07:02.223Z,33.87
2019-01-21T11:09:53.937Z,35.10
2019-01-21T11:13:19.004Z,33.70
2019-01-21T11:16:09.818Z,34.60
2019-01-21T11:19:22.892Z,35.07
2019-01-21T11:21:57.683Z,33.20
2019-01-21T11:25:06.420Z,35.73
2019-01-21T11:28:22.231Z,35.20
2019-01-21T11:31:25.999Z,32.27
2019-01-21T11:34:34.862Z,34.10
2019-01-21T11:37:22.031Z,34.43
2019-01-21T11:40:18.333Z,30.03
2019-01-21T11:43:26.954Z,30.57
2019-01-21T11:46:47.171Z,36.10
2019-01-21T11:49:44.794Z,32.03
2019-01-21T11:53:03.815Z,38.67
2019-01-21T11:56:26.275Z,33.67
2019-01-21T11:59:32.238Z,35.43
2019-01-21T12:02:42.499Z,38.43
2019-01-21T12:05:37.643Z,36.60
2019-01-21T12:08:49.707Z,36.30
2019-01-21T12:11:48.224Z,33.20
2019-01-21T12:14:48.935Z,32.53
2019-01-21T12:17:56.784Z,34.13
2019-01-21T12:21:09.053Z,33.73
2019-01-21T12:24:37.411Z,34.20
2019-01-21T12:27:59.430Z,30.30
2019-01-21T12:30:42.275Z,35.60
2019-01-21T12:33:39.452Z,31.57
2019-01-21T12:36:23.259Z,33.20
2019-01-21T12:39:09.946Z,31.10
2019-01-21T12:42:19.766Z,31.23
2019-01-21T12:45:02.845Z,28.73
2019-01-21T12:48:01.675Z,29.30
2019-01-21T12:51:28.747Z,30.70
2019-01-21T12:54:37.876Z,30.83
2019-01-21T12:57:44.029Z,32.00
2019-01-21T13:00:41.847Z,27.50
2019-01-21T13:03:56.319Z,30.93
2019-01-21T13:07:02.203Z,30.90
2019-01-21T13:09:49.502Z,27.33
2019-01-21T13:12:42.384Z,27.90
2019-01-21T13:16:04.566Z,27.90
2019-01-21T13:19:06.006Z,28.43
2019-01-21T13:21:57.343Z,29.03
2019-01-21T13:25:06.751Z,26.77
2019-01-21T13:27:51.894Z,26.60
2019-01-21T13:30:49.647Z,29.57
2019-01-21T13:33:36.977Z,28.60
2019-01-21T13:36:48.263Z,28.03
2019-01-21T13:39:29.949Z,28.67
2019-01-21T13:42:12.458Z,29.47
2019-01-21T13:45:20.354Z,33.30
2019-01-21T13:48:09.516Z,30.33
2019-01-21T13:50:59.986Z,28.70
2019-01-21T13:54:02.068Z,25.80
2019-01-21T13:56:44.153Z,27.80
2019-01-21T13:59:33.771Z,27.90
2019-01-21T14:02:07.845Z,28.53
2019-01-21T14:05:23.453Z,26.87
2019-01-21T14:08:33.007Z,28.67
2019-01-21T14:11:58.187Z,28.50
2019-01-21T14:14:57.787Z,25.97
2019-01-21T14:17:57.194Z,26.10
2019-01-21T14:20:32.296Z,26.33
2019-01-21T14:23:31.919Z,23.73
2019-01-21T14:26:35.131Z,27.93
2019-01-21T14:29:50.079Z,25.47
2019-01-21T14:32:46.026Z,27.17
2019-01-21T14:36:01.500Z,28.27
2019-01-21T14:38:47.411Z,25.93
2019-01-21T14:42:00.782Z,26.97
2019-01-21T14:44:59.125Z,25.10
2019-01-21T14:47:59.425Z,27.17
2019-01-21T14:51:05.410Z,28.30
2019-01-21T14:53:45.023Z,25.67
2019-01-21T14:56:19.329Z,26.77
2019-01-21T14:59:28.864Z,27.07
2019-01-21T15:02:09.802Z,25.90
2019-01-21T15:05:31.841Z,26.83
2019-01-21T15:08:28.848Z,27.93
2019-01-21T15:11:54.189Z,26.70
2019-01-21T15:14:37.034Z,29.07
2019-01-21T15:17:22.172Z,27.00
2019-01-21T15:20:15.589Z,29.37
2019-01-21T15:23:31.912Z,27.80
2019-01-21T15:26:22.558Z,27.60
2019-01-21T15:29:35.345Z,27.53
2019-01-21T15:32:42.234Z,29.67
2019-01-21T15:35:40.507Z,27.87
2019-01-21T15:38:36.011Z,28.57
2019-01-21T15:41:41.685Z,29.10
2019-01-21T15:44:26.198Z,29.07
2019-01-21T15:47:32.405Z,33.30
2019-01-21T15:50:29.546Z,31.20
2019-01-21T15:53:44.238Z,31.57
2019-01-21T15:57:00.061Z,26.13
2019-01-21T16:00:14.527Z,32.83
2019-01-21T16:03:24.926Z,29.50
2019-01-21T16:06:11.331Z,33.87
2019-01-21T16:09:02.085Z,31.37
2019-01-21T16:12:07.227Z,31.57
2019-01-21T16:15:02.034Z,31.67
2019-01-21T16:18:09.042Z,33.67
2019-01-21T16:21:18.837Z,34.90
2019-01-21T16:24:32.658Z,36.27
2019-01-21T16:27:29.830Z,31.13
2019-01-21T16:30:13.622Z,29.03
2019-01-21T16:33:11.846Z,31.20
2019-01-21T16:36:08.165Z,27.00
2019-01-21T16:39:24.226Z,30.00
2019-01-21T16:42:15.416Z,30.07
2019-01-21T16:44:46.545Z,31.03
2019-01-21T16:47:16.668Z,30.93
2019-01-21T16:49:45.821Z,30.93
2019-01-21T16:52:14.800Z,30.63
2019-01-21T16:54:44.824Z,36.40
2019-01-21T16:57:33.982Z,32.33
2019-01-21T17:00:02.980Z,31.57
2019-01-21T17:02:32.083Z,32.80
2019-01-21T17:05:01.127Z,33.23
2019-01-21T17:07:30.049Z,36.57
2019-01-21T17:09:59.038Z,37.00
2019-01-21T17:12:28.030Z,31.67
2019-01-21T17:14:57.628Z,33.87
2019-01-21T17:17:27.054Z,34.27
2019-01-21T17:19:56.025Z,35.93
2019-01-21T17:22:29.236Z,32.83
2019-01-21T17:25:05.111Z,41.47
2019-01-21T17:27:34.631Z,30.43
2019-01-21T17:30:04.766Z,36.77
2019-01-21T17:32:43.746Z,33.57
2019-01-21T17:35:19.354Z,37.17
2019-01-21T17:37:48.780Z,37.53
2019-01-21T17:40:23.430Z,36.67
2019-01-21T17:42:56.048Z,32.63
2019-01-21T17:45:28.095Z,35.33
2019-01-21T17:47:57.195Z,32.53
2019-01-21T17:50:26.222Z,35.07
2019-01-21T17:52:55.690Z,36.97
2019-01-21T17:55:24.840Z,38.90
2019-01-21T17:57:53.879Z,36.90
2019-01-21T18:00:23.951Z,36.67
2019-01-21T18:02:52.903Z,37.00
2019-01-21T18:05:21.900Z,41.20
2019-01-21T18:07:50.940Z,44.07
2019-01-21T18:10:21.303Z,37.53
2019-01-21T18:12:50.218Z,42.87
2019-01-21T18:15:19.275Z,41.70
2019-01-21T18:17:48.356Z,42.27
2019-01-21T18:20:19.774Z,43.13
2019-01-21T18:22:48.753Z,39.70
2019-01-21T18:25:19.544Z,37.70
2019-01-21T18:27:48.851Z,37.83
2019-01-21T18:30:23.931Z,38.67
2019-01-21T18:32:52.759Z,38.87
2019-01-21T18:35:21.751Z,40.70
2019-01-21T18:37:50.734Z,42.67
2019-01-21T18:40:20.715Z,38.20
2019-01-21T18:42:50.299Z,39.00
2019-01-21T18:45:24.239Z,37.20
2019-01-21T18:47:53.243Z,39.33
2019-01-21T18:50:22.201Z,37.40
2019-01-21T18:52:51.703Z,38.90
2019-01-21T18:55:20.706Z,37.30
2019-01-21T18:57:55.714Z,38.17
2019-01-21T19:00:22.776Z,36.27
2019-01-21T19:02:52.923Z,38.70
2019-01-21T19:05:28.413Z,36.11
2019-01-21T19:07:57.539Z,38.13
2019-01-21T19:10:26.520Z,38.30
2019-01-21T19:12:55.602Z,39.63
2019-01-21T19:15:30.506Z,38.00
2019-01-21T19:17:59.659Z,36.97
2019-01-21T19:20:28.783Z,36.87
2019-01-21T19:22:57.875Z,34.57
2019-01-21T19:25:26.916Z,35.63
2019-01-21T19:27:55.976Z,35.97
2019-01-21T19:30:26.799Z,34.70
2019-01-21T19:32:55.955Z,35.57
2019-01-21T19:35:27.735Z,36.37
2019-01-21T19:37:56.726Z,35.23
2019-01-21T19:40:26.890Z,38.90
2019-01-21T19:42:55.969Z,36.77
2019-01-21T19:45:25.110Z,37.07
2019-01-21T19:47:54.051Z,35.57
2019-01-21T19:50:23.460Z,36.20
2019-01-21T19:52:52.630Z,36.57
2019-01-21T19:55:24.771Z,34.70
2019-01-21T19:58:02.610Z,35.60
2019-01-21T20:00:37.811Z,35.17
2019-01-21T20:03:06.751Z,39.07
2019-01-21T20:05:35.756Z,33.87
2019-01-21T20:08:05.378Z,33.67
2019-01-21T20:10:34.520Z,33.07
2019-01-21T20:13:04.909Z,30.77
2019-01-21T20:15:33.957Z,33.40
2019-01-21T20:18:03.172Z,32.67
2019-01-21T20:20:34.839Z,29.43
2019-01-21T20:23:04.076Z,36.80
2019-01-21T20:25:33.032Z,33.87
2019-01-21T20:28:02.156Z,32.20
2019-01-21T20:30:31.131Z,32.80
2019-01-21T20:33:00.138Z,33.93
2019-01-21T20:35:29.093Z,31.23
2019-01-21T20:37:58.050Z,30.20
2019-01-21T20:40:27.601Z,34.77
2019-01-21T20:42:56.760Z,32.93
2019-01-21T20:45:25.895Z,33.20
2019-01-21T20:47:54.859Z,35.80
2019-01-21T20:50:26.129Z,29.67
2019-01-21T20:52:55.111Z,30.43
2019-01-21T20:55:24.322Z,28.17
2019-01-21T20:57:53.375Z,29.40
2019-01-21T21:00:24.302Z,32.50
2019-01-21T21:02:54.262Z,31.53
2019-01-21T21:05:27.714Z,28.06
2019-01-21T21:07:56.895Z,29.90
2019-01-21T21:10:26.079Z,27.10
2019-01-21T21:12:55.014Z,31.87
2019-01-21T21:15:27.558Z,30.07
2019-01-21T21:17:56.593Z,29.80
2019-01-21T21:20:25.538Z,32.70
2019-01-21T21:22:54.618Z,31.27
2019-01-21T21:25:23.750Z,33.73
2019-01-21T21:27:53.874Z,28.90
2019-01-21T21:30:28.108Z,32.87
2019-01-21T21:32:57.245Z,31.83
2019-01-21T21:35:26.415Z,31.20
2019-01-21T21:37:56.698Z,34.03
2019-01-21T21:40:25.821Z,28.60
2019-01-21T21:42:54.870Z,29.97
2019-01-21T21:45:26.152Z,30.13
2019-01-21T21:48:01.188Z,29.40
2019-01-21T21:50:32.406Z,30.60
2019-01-21T21:53:02.598Z,29.90
2019-01-21T21:55:31.843Z,32.13
2019-01-21T21:58:01.914Z,32.10
2019-01-21T22:00:31.108Z,31.23
2019-01-21T22:03:00.093Z,31.67
2019-01-21T22:05:34.815Z,31.83
2019-01-21T22:08:10.641Z,32.97
2019-01-21T22:10:39.594Z,31.93
2019-01-21T22:13:08.604Z,34.53
2019-01-21T22:15:37.605Z,33.40
2019-01-21T22:18:06.563Z,34.90
2019-01-21T22:20:35.543Z,33.30
2019-01-21T22:23:04.813Z,38.67
2019-01-21T22:25:33.830Z,33.20
2019-01-21T22:28:02.767Z,32.83
2019-01-21T22:30:31.793Z,34.27
2019-01-21T22:33:00.711Z,37.60
2019-01-21T22:35:30.181Z,32.83
2019-01-21T22:37:59.002Z,33.67
2019-01-21T22:40:28.130Z,33.47
2019-01-21T22:42:57.028Z,34.10
2019-01-21T22:45:26.106Z,33.33
2019-01-21T22:47:55.039Z,33.13
2019-01-21T22:50:24.155Z,32.60
2019-01-21T22:52:53.137Z,33.37
2019-01-21T22:55:22.207Z,35.10
2019-01-21T22:57:51.215Z,35.10
2019-01-21T23:00:50.587Z,33.57
2019-01-21T23:03:19.742Z,31.03
2019-01-21T23:05:48.854Z,33.87
2019-01-21T23:08:17.698Z,37.57
2019-01-21T23:10:46.720Z,33.87
2019-01-21T23:13:15.794Z,36.53
2019-01-21T23:15:44.735Z,33.03
2019-01-21T23:18:13.727Z,32.57
2019-01-21T23:20:42.579Z,36.90
2019-01-21T23:23:11.516Z,34.50
2019-01-21T23:25:40.446Z,33.10
2019-01-21T23:28:09.526Z,33.10
2019-01-21T23:30:38.522Z,37.97
2019-01-21T23:33:07.503Z,35.53
2019-01-21T23:35:36.802Z,31.50
2019-01-21T23:38:05.887Z,35.10
2019-01-21T23:40:34.750Z,35.63
2019-01-21T23:43:03.687Z,38.17
2019-01-21T23:45:32.866Z,38.60
2019-01-21T23:48:01.717Z,33.97
2019-01-21T23:50:30.874Z,35.07
2019-01-21T23:52:59.835Z,36.57
2019-01-21T23:55:28.857Z,36.13
2019-01-21T23:57:57.803Z,31.00
